Terminal Aerodrome Forecast
Issued by NWS Bismarck, ND

Home | Current Version | Previous Version | Text Only | Print | Product List | Glossary Off
Versions: 1 2 3 4 5 6 7 8 9 10 11 12 13 14 15 16 17 18 19 20 21

000
FTUS43 KBIS 170421 AAA
TAFISN
TAF AMD
KISN 170421Z 1704/1724 26005KT P6SM SCT070 BKN100
     FM170800 32006KT P6SM SCT025 BKN070
     FM171700 29008KT P6SM SCT060=

USA.gov is the U.S. government's official web portal to all federal, state and local government web resources and services.